This is the latest recevied weather packets stored in our database for station/object N5TSS. If no packets are shown the sender has not sent any weather packets the latest 10 day(s).
| Time | Temp. | Humidity | Pressure | Rain* | Wind** | Luminosity | Snow |
|---|---|---|---|---|---|---|---|
| 1777821493 | 22.78° C | 53% | 1024.1 hPa | 0 mm | - | - | - |
| 1777821191 | 22.78° C | 53% | 1024.1 hPa | 0 mm | - | - | - |
| 1777820888 | 22.22° C | 53% | 1024.1 hPa | 0 mm | - | - | - |
| 1777820583 | 21.67° C | 57% | 1024.1 hPa | 0 mm | - | - | - |
| 1777820280 | 21.67° C | 54% | 1024.1 hPa | 0 mm | - | - | - |
| 1777819978 | 21.67° C | 54% | 1024.1 hPa | 0 mm | - | - | - |
| 1777819675 | 21.67° C | 55% | 1024.1 hPa | 0 mm | - | - | - |
| 1777819374 | 21.11° C | 55% | 1024.1 hPa | 0 mm | - | - | - |
| 1777819070 | 21.11° C | 58% | 1024.5 hPa | 0 mm | - | - | - |
| 1777818767 | 20.56° C | 58% | 1024.1 hPa | 0 mm | - | - | - |
| 1777818463 | 20.56° C | 61% | 1024.1 hPa | 0 mm | - | - | - |
| 1777818160 | 20.56° C | 63% | 1024.1 hPa | 0 mm | - | - | - |
| 1777817857 | 20° C | 66% | 1024.1 hPa | 0 mm | - | - | - |
| 1777817554 | 20° C | 66% | 1024.1 hPa | 0 mm | - | - | - |
| 1777817251 | 19.44° C | 67% | 1024.1 hPa | 0 mm | - | - | - |
| 1777816948 | 18.89° C | 68% | 1024.5 hPa | 0 mm | - | - | - |
| 1777816644 | 18.33° C | 72% | 1024.5 hPa | 0 mm | - | - | - |
| 1777816341 | 17.22° C | 81% | 1024.5 hPa | 0 mm | - | - | - |
| 1777816039 | 16.11° C | 88% | 1024.5 hPa | 0 mm | - | - | - |
| 1777815736 | 15.56° C | 91% | 1024.5 hPa | 0 mm | - | - | - |
| 1777815434 | 15° C | 91% | 1024.5 hPa | 0 mm | - | - | - |
| 1777815131 | 14.44° C | 93% | 1024.1 hPa | 0 mm | - | - | - |
| 1777814827 | 13.89° C | 95% | 1024.1 hPa | 0 mm | - | - | - |
| 1777814523 | 13.33° C | 95% | 1024.1 hPa | 0 mm | - | - | - |
| 1777814221 | 13.33° C | 95% | 1024.1 hPa | 0 mm | - | - | - |
* Rain latest hour (hover to see other rain measurements)
** Current wind speed in m/s (hover to see current wind gust speed)